createdAt,value
2023-05-01T00:00:38.049Z,2.58
2023-05-01T00:03:04.914Z,4.50
2023-05-01T00:05:31.840Z,3.78
2023-05-01T00:07:58.651Z,2.90
2023-05-01T00:10:25.463Z,4.00
2023-05-01T00:12:52.377Z,4.35
2023-05-01T00:15:19.124Z,4.05
2023-05-01T00:17:45.942Z,2.70
2023-05-01T00:20:13.010Z,2.40
2023-05-01T00:22:39.869Z,3.30
2023-05-01T00:25:07.319Z,4.57
2023-05-01T00:27:34.153Z,4.32
2023-05-01T00:30:00.978Z,3.42
2023-05-01T00:32:28.149Z,3.67
2023-05-01T00:34:56.853Z,7.38
2023-05-01T00:37:24.474Z,8.73
2023-05-01T00:39:51.214Z,3.05
2023-05-01T00:42:18.100Z,11.80
2023-05-01T00:44:44.746Z,4.43
2023-05-01T00:47:11.958Z,6.70
2023-05-01T00:49:38.619Z,4.78
2023-05-01T00:52:05.358Z,2.83
2023-05-01T00:54:32.144Z,6.50
2023-05-01T00:56:58.945Z,4.32
2023-05-01T00:59:25.655Z,4.20
2023-05-01T01:01:54.947Z,3.78
2023-05-01T01:04:22.901Z,5.10
2023-05-01T01:06:54.652Z,4.90
2023-05-01T01:09:29.372Z,7.55
2023-05-01T01:12:22.386Z,9.13
2023-05-01T01:15:02.444Z,5.43
2023-05-01T01:17:42.385Z,5.63
2023-05-01T01:20:44.956Z,5.07
2023-05-01T01:23:20.633Z,4.60
2023-05-01T01:25:55.862Z,4.20
2023-05-01T01:28:52.074Z,5.47
2023-05-01T01:31:33.905Z,5.60
2023-05-01T01:34:12.727Z,5.80
2023-05-01T01:36:43.633Z,3.60
2023-05-01T01:39:27.097Z,5.82
2023-05-01T01:41:56.549Z,7.95
2023-05-01T01:44:42.124Z,4.10
2023-05-01T01:47:12.187Z,4.03
2023-05-01T01:49:42.399Z,11.77
2023-05-01T01:52:13.081Z,6.43
2023-05-01T01:54:45.171Z,10.23
2023-05-01T01:57:14.605Z,6.40
2023-05-01T01:59:42.790Z,6.13
2023-05-01T02:02:11.589Z,6.32
2023-05-01T02:04:39.897Z,7.55
2023-05-01T02:07:07.297Z,5.72
2023-05-01T02:09:35.534Z,7.55
2023-05-01T02:12:07.019Z,7.10
2023-05-01T02:14:34.157Z,9.30
2023-05-01T02:17:02.436Z,6.72
2023-05-01T02:19:30.516Z,5.65
2023-05-01T02:21:58.441Z,9.48
2023-05-01T02:24:27.547Z,7.00
2023-05-01T02:27:01.532Z,5.65
2023-05-01T02:29:28.323Z,4.03
2023-05-01T02:31:55.794Z,5.65
2023-05-01T02:34:24.689Z,3.67
2023-05-01T02:36:51.282Z,5.88
2023-05-01T02:39:17.946Z,5.28
2023-05-01T02:41:45.730Z,5.80
2023-05-01T02:44:13.391Z,6.95
2023-05-01T02:46:44.584Z,6.68
2023-05-01T02:49:12.746Z,8.18
2023-05-01T02:51:41.041Z,4.85
2023-05-01T02:54:10.679Z,9.10
2023-05-01T02:56:37.625Z,4.80
2023-05-01T02:59:04.239Z,5.28
2023-05-01T03:01:30.999Z,4.20
2023-05-01T03:03:58.430Z,4.78
2023-05-01T03:06:25.052Z,5.82
2023-05-01T03:08:51.788Z,6.68
2023-05-01T03:11:18.456Z,14.13
2023-05-01T03:13:46.243Z,6.32
2023-05-01T03:16:13.040Z,7.40
2023-05-01T03:18:39.829Z,6.57
2023-05-01T03:21:06.539Z,7.45
2023-05-01T03:23:33.266Z,4.00
2023-05-01T03:25:59.898Z,6.93
2023-05-01T03:28:26.477Z,5.63
2023-05-01T03:30:53.163Z,4.47
2023-05-01T03:33:19.842Z,8.80
2023-05-01T03:35:46.884Z,6.68
2023-05-01T03:38:13.646Z,5.20
2023-05-01T03:40:40.296Z,5.70
2023-05-01T03:43:07.318Z,5.53
2023-05-01T03:45:34.034Z,5.47
2023-05-01T03:48:00.592Z,8.35
2023-05-01T03:50:27.212Z,7.13
2023-05-01T03:52:53.996Z,11.98
2023-05-01T03:55:20.593Z,7.30
2023-05-01T03:57:47.684Z,4.07
2023-05-01T04:00:14.962Z,7.47
2023-05-01T04:02:41.877Z,6.60
2023-05-01T04:05:09.301Z,5.00
2023-05-01T04:07:35.988Z,4.50
2023-05-01T04:10:03.086Z,5.72
2023-05-01T04:12:29.713Z,9.32
2023-05-01T04:14:56.283Z,5.80
2023-05-01T04:17:23.204Z,6.05
2023-05-01T04:19:50.417Z,8.55
2023-05-01T04:22:17.016Z,9.77
2023-05-01T04:24:43.839Z,6.40
2023-05-01T04:27:10.424Z,6.40
2023-05-01T04:29:37.054Z,4.75
2023-05-01T04:32:03.853Z,7.60
2023-05-01T04:34:31.036Z,4.85
2023-05-01T04:36:57.673Z,8.52
2023-05-01T04:39:24.369Z,4.93
2023-05-01T04:41:51.275Z,5.32
2023-05-01T04:44:17.789Z,6.65
2023-05-01T04:46:44.608Z,6.28
2023-05-01T04:49:11.740Z,5.88
2023-05-01T04:51:38.607Z,7.25
2023-05-01T04:54:05.253Z,5.70
2023-05-01T04:56:32.275Z,6.47
2023-05-01T04:59:00.432Z,6.28
2023-05-01T05:01:27.098Z,4.93
2023-05-01T05:03:53.850Z,6.25
2023-05-01T05:06:21.318Z,9.77
2023-05-01T05:08:52.172Z,6.43
2023-05-01T05:11:19.289Z,5.00
2023-05-01T05:13:46.349Z,7.75
2023-05-01T05:16:13.279Z,10.93
2023-05-01T05:18:40.012Z,7.43
2023-05-01T05:21:07.348Z,8.18
2023-05-01T05:23:33.967Z,5.20
2023-05-01T05:26:01.854Z,7.50
2023-05-01T05:28:28.959Z,6.18
2023-05-01T05:30:56.350Z,7.82
2023-05-01T05:33:25.038Z,9.07
2023-05-01T05:35:52.443Z,8.27
2023-05-01T05:38:19.260Z,6.63
2023-05-01T05:40:46.083Z,9.40
2023-05-01T05:43:12.763Z,7.95
2023-05-01T05:45:39.538Z,8.85
2023-05-01T05:48:06.390Z,8.95
2023-05-01T05:50:35.094Z,8.43
2023-05-01T05:53:01.713Z,6.82
2023-05-01T05:55:28.346Z,9.02
2023-05-01T05:57:55.005Z,11.55
2023-05-01T06:00:21.732Z,9.00
2023-05-01T06:02:48.645Z,12.05
2023-05-01T06:05:18.110Z,6.40
2023-05-01T06:07:47.415Z,11.15
2023-05-01T06:10:14.016Z,9.02
2023-05-01T06:12:43.826Z,7.68
2023-05-01T06:15:16.866Z,8.30
2023-05-01T06:17:43.623Z,7.60
2023-05-01T06:20:11.087Z,5.88
2023-05-01T06:22:37.679Z,7.03
2023-05-01T06:25:11.826Z,9.45
2023-05-01T06:27:38.521Z,8.10
2023-05-01T06:30:09.724Z,7.78
2023-05-01T06:32:36.438Z,8.32
2023-05-01T06:35:03.197Z,5.38
2023-05-01T06:37:30.144Z,8.07
2023-05-01T06:39:57.075Z,5.57
2023-05-01T06:42:26.812Z,7.35
2023-05-01T06:44:59.056Z,8.30
2023-05-01T06:47:28.512Z,15.25
2023-05-01T06:49:55.326Z,11.52
2023-05-01T06:52:22.279Z,11.80
2023-05-01T06:54:48.902Z,7.80
2023-05-01T06:57:15.621Z,7.97
2023-05-01T06:59:43.743Z,12.55
2023-05-01T07:02:10.747Z,9.13
2023-05-01T07:04:37.448Z,6.53
2023-05-01T07:07:06.857Z,9.18
2023-05-01T07:09:33.420Z,9.00
2023-05-01T07:12:00.213Z,9.10
2023-05-01T07:14:26.916Z,6.88
2023-05-01T07:16:56.279Z,8.88
2023-05-01T07:19:29.108Z,7.70
2023-05-01T07:21:58.299Z,6.93
2023-05-01T07:24:28.293Z,9.65
2023-05-01T07:26:56.546Z,7.78
2023-05-01T07:29:23.219Z,9.18
2023-05-01T07:31:51.768Z,6.35
2023-05-01T07:34:27.686Z,8.13
2023-05-01T07:36:54.251Z,8.35
2023-05-01T07:39:20.865Z,8.45
2023-05-01T07:41:47.611Z,7.32
2023-05-01T07:44:14.414Z,8.95
2023-05-01T07:46:41.814Z,9.45
2023-05-01T07:49:08.974Z,11.88
2023-05-01T07:52:26.343Z,6.72
2023-05-01T07:54:53.035Z,6.80
2023-05-01T07:57:20.244Z,10.13
2023-05-01T07:59:46.815Z,8.02
2023-05-01T08:02:14.044Z,9.57
2023-05-01T08:04:41.974Z,9.70
2023-05-01T08:07:09.003Z,7.80
2023-05-01T08:09:38.947Z,10.43
2023-05-01T08:12:06.082Z,7.57
2023-05-01T08:14:33.236Z,8.68
2023-05-01T08:17:00.070Z,6.72
2023-05-01T08:19:28.947Z,5.18
2023-05-01T08:21:55.578Z,5.25
2023-05-01T08:24:22.201Z,7.00
2023-05-01T08:26:50.175Z,8.77
2023-05-01T08:29:16.919Z,7.90
2023-05-01T08:31:43.933Z,6.63
2023-05-01T08:34:10.981Z,10.63
2023-05-01T08:36:38.376Z,7.80
2023-05-01T08:39:07.569Z,7.35
2023-05-01T08:41:37.863Z,10.10
2023-05-01T08:44:05.292Z,9.63
2023-05-01T08:46:41.467Z,4.90
2023-05-01T08:49:10.396Z,7.18
2023-05-01T08:51:38.556Z,7.68
2023-05-01T08:54:06.722Z,7.15
2023-05-01T08:56:39.067Z,8.82
2023-05-01T08:59:08.150Z,6.83
2023-05-01T09:01:42.294Z,8.35
2023-05-01T09:04:11.851Z,6.80
2023-05-01T09:06:38.785Z,9.73
2023-05-01T09:09:09.111Z,6.55
2023-05-01T09:11:36.798Z,5.63
2023-05-01T09:14:08.501Z,7.82
2023-05-01T09:16:35.375Z,7.43
2023-05-01T09:19:02.171Z,6.88
2023-05-01T09:21:31.802Z,7.07
2023-05-01T09:24:01.860Z,5.82
2023-05-01T09:26:28.589Z,9.70
2023-05-01T09:29:00.483Z,6.72
2023-05-01T09:31:29.379Z,8.85
2023-05-01T09:34:01.693Z,6.95
2023-05-01T09:36:41.960Z,5.90
2023-05-01T09:39:25.560Z,12.05
2023-05-01T09:44:21.737Z,9.57
2023-05-01T09:46:49.661Z,7.60
2023-05-01T09:52:33.768Z,10.80
2023-05-01T09:55:14.906Z,11.73
2023-05-01T09:57:43.028Z,7.65
2023-05-01T10:00:15.505Z,9.45
2023-05-01T10:02:44.414Z,11.03
2023-05-01T10:05:43.173Z,11.80
2023-05-01T10:08:18.378Z,11.85
2023-05-01T10:11:33.186Z,7.70
2023-05-01T10:14:10.620Z,7.63
2023-05-01T10:16:49.678Z,10.52
2023-05-01T10:19:20.416Z,9.02
2023-05-01T10:21:47.150Z,8.05
2023-05-01T10:24:15.250Z,12.95
2023-05-01T10:26:43.364Z,6.32
2023-05-01T10:29:10.961Z,6.10
2023-05-01T10:31:47.459Z,5.75
2023-05-01T10:34:18.545Z,8.30
2023-05-01T10:36:57.181Z,5.68
2023-05-01T10:39:36.909Z,10.27
2023-05-01T10:42:11.685Z,6.22
2023-05-01T10:44:38.601Z,6.80
2023-05-01T10:47:31.703Z,12.95
2023-05-01T10:50:18.600Z,14.88
2023-05-01T10:53:10.835Z,10.80
2023-05-01T10:55:42.842Z,7.97
2023-05-01T10:58:35.047Z,8.32
2023-05-01T11:01:40.720Z,11.18
2023-05-01T11:04:08.961Z,7.53
2023-05-01T11:06:56.432Z,8.38
2023-05-01T11:09:44.234Z,8.45
2023-05-01T11:12:12.569Z,8.07
2023-05-01T11:14:54.903Z,6.90
2023-05-01T11:17:40.214Z,7.82
2023-05-01T11:20:11.971Z,7.60
2023-05-01T11:22:40.933Z,10.27
2023-05-01T11:25:26.960Z,8.40
2023-05-01T11:28:35.810Z,11.38
2023-05-01T11:31:03.449Z,13.50
2023-05-01T11:33:33.557Z,8.23
2023-05-01T11:36:09.852Z,8.18
2023-05-01T11:38:36.692Z,13.52
2023-05-01T11:41:06.410Z,8.40
2023-05-01T11:43:33.349Z,6.45
2023-05-01T11:46:03.545Z,7.57
2023-05-01T11:48:31.276Z,6.57
2023-05-01T11:50:58.173Z,7.90
2023-05-01T11:53:41.228Z,4.95
2023-05-01T11:56:27.241Z,7.57
2023-05-01T11:58:56.170Z,5.35
2023-05-01T12:01:39.615Z,12.20
2023-05-01T12:04:09.539Z,8.18
2023-05-01T12:06:40.917Z,6.70
2023-05-01T12:12:16.337Z,8.68
2023-05-01T12:14:43.581Z,8.20
2023-05-01T12:17:12.312Z,7.28
2023-05-01T12:19:48.923Z,6.10
2023-05-01T12:22:15.527Z,10.35
2023-05-01T12:24:52.907Z,13.20
2023-05-01T12:27:20.596Z,11.80
2023-05-01T12:29:48.206Z,9.65
2023-05-01T12:32:15.554Z,7.65
2023-05-01T12:34:42.550Z,9.93
2023-05-01T12:37:10.487Z,7.15
2023-05-01T12:39:42.663Z,13.35
2023-05-01T12:42:14.346Z,12.68
2023-05-01T12:44:41.380Z,12.05
2023-05-01T12:47:09.147Z,7.97
2023-05-01T12:49:37.462Z,12.50
2023-05-01T12:52:08.954Z,14.00
2023-05-01T12:54:44.969Z,12.85
2023-05-01T12:57:18.235Z,13.60
2023-05-01T12:59:46.635Z,8.30
2023-05-01T13:02:18.204Z,10.68
2023-05-01T13:04:53.256Z,7.13
2023-05-01T13:07:20.724Z,9.25
2023-05-01T13:09:58.446Z,8.18
2023-05-01T13:12:27.095Z,11.18
2023-05-01T13:14:54.562Z,9.13
2023-05-01T13:17:32.579Z,7.22
2023-05-01T13:20:05.752Z,12.30
2023-05-01T13:22:47.410Z,6.68
2023-05-01T13:25:51.626Z,8.65
2023-05-01T13:32:13.972Z,7.28
2023-05-01T13:35:04.842Z,5.63
2023-05-01T13:37:36.222Z,8.07
2023-05-01T13:40:06.294Z,5.80
2023-05-01T13:42:33.022Z,6.15
2023-05-01T13:45:00.161Z,6.65
2023-05-01T13:47:27.239Z,5.88
2023-05-01T13:49:57.452Z,8.02
2023-05-01T13:52:27.827Z,8.00
2023-05-01T13:54:57.032Z,9.38
2023-05-01T13:57:25.956Z,9.93
2023-05-01T13:59:52.698Z,6.88
2023-05-01T14:02:28.923Z,7.72
2023-05-01T14:04:58.347Z,6.70
2023-05-01T14:07:27.028Z,7.05
2023-05-01T14:09:56.263Z,7.07
2023-05-01T14:12:30.902Z,8.98
2023-05-01T14:14:58.326Z,7.25
2023-05-01T14:17:49.220Z,7.20
2023-05-01T14:20:17.301Z,7.07
2023-05-01T14:22:46.641Z,7.00
2023-05-01T14:25:28.544Z,7.07
2023-05-01T14:27:56.582Z,7.50
2023-05-01T14:30:36.114Z,8.63
2023-05-01T14:33:04.254Z,8.43
2023-05-01T14:35:31.176Z,10.20
2023-05-01T14:38:12.878Z,8.00
2023-05-01T14:40:43.858Z,11.32
2023-05-01T14:43:16.023Z,8.68
2023-05-01T14:45:46.143Z,9.73
2023-05-01T14:48:36.016Z,8.95
2023-05-01T14:51:29.859Z,11.15
2023-05-01T14:56:26.277Z,9.15
2023-05-01T14:58:52.969Z,11.07
2023-05-01T15:01:19.893Z,8.95
2023-05-01T15:03:46.972Z,9.88
2023-05-01T15:06:13.748Z,9.57
2023-05-01T15:08:40.535Z,10.32
2023-05-01T15:11:07.683Z,9.52
2023-05-01T15:13:34.482Z,9.40
2023-05-01T15:16:01.366Z,9.45
2023-05-01T15:18:30.442Z,13.18
2023-05-01T15:20:57.409Z,11.23
2023-05-01T15:23:28.026Z,10.38
2023-05-01T15:26:05.800Z,10.80
2023-05-01T15:28:33.067Z,10.60
2023-05-01T15:31:03.063Z,11.43
2023-05-01T15:33:29.692Z,13.02
2023-05-01T15:36:05.563Z,13.95
2023-05-01T15:38:41.766Z,11.88
2023-05-01T15:41:08.617Z,12.93
2023-05-01T15:43:35.250Z,15.30
2023-05-01T15:46:01.948Z,12.23
2023-05-01T15:48:28.649Z,11.55
2023-05-01T15:50:55.363Z,12.55
2023-05-01T15:53:28.092Z,13.38
2023-05-01T15:55:58.594Z,11.35
2023-05-01T15:58:28.246Z,11.90
2023-05-01T16:00:54.896Z,12.15
2023-05-01T16:03:33.651Z,13.75
2023-05-01T16:06:00.614Z,10.98
2023-05-01T16:08:28.581Z,12.40
2023-05-01T16:10:56.627Z,12.35
2023-05-01T16:13:24.001Z,14.32
2023-05-01T16:15:50.607Z,12.15
2023-05-01T16:18:24.536Z,11.35
2023-05-01T16:20:54.823Z,11.95
2023-05-01T16:23:22.293Z,12.05
2023-05-01T16:25:50.266Z,11.88
2023-05-01T16:28:58.696Z,13.07
2023-05-01T16:31:28.965Z,10.55
2023-05-01T16:34:04.351Z,13.57
2023-05-01T16:36:31.674Z,10.00
2023-05-01T16:39:04.471Z,12.15
2023-05-01T16:41:31.129Z,11.88
2023-05-01T16:44:05.976Z,11.13
2023-05-01T16:46:41.956Z,12.98
2023-05-01T16:49:46.771Z,11.40
2023-05-01T16:52:16.567Z,13.25
2023-05-01T16:54:43.137Z,12.02
2023-05-01T16:57:13.096Z,11.98
2023-05-01T16:59:39.657Z,12.23
2023-05-01T17:02:10.945Z,16.23
2023-05-01T17:04:49.340Z,14.13
2023-05-01T17:07:16.340Z,14.38
2023-05-01T17:10:21.664Z,16.48
2023-05-01T17:12:48.714Z,15.98
2023-05-01T17:15:15.363Z,14.52
2023-05-01T17:17:42.219Z,15.55
2023-05-01T17:20:09.906Z,14.23
2023-05-01T17:22:37.035Z,15.25
2023-05-01T17:25:03.948Z,17.42
2023-05-01T17:27:32.146Z,17.23
2023-05-01T17:30:02.014Z,15.13
2023-05-01T17:32:36.466Z,17.73
2023-05-01T17:35:08.047Z,16.45
2023-05-01T17:37:34.817Z,15.75
2023-05-01T17:40:05.484Z,14.80
2023-05-01T17:42:42.187Z,19.23
2023-05-01T17:45:18.921Z,13.27
2023-05-01T17:50:30.610Z,16.38
2023-05-01T17:53:00.119Z,16.77
2023-05-01T17:55:28.049Z,16.13
2023-05-01T18:01:22.420Z,15.27
2023-05-01T18:03:59.578Z,16.13
2023-05-01T18:09:54.786Z,17.25
2023-05-01T18:12:57.167Z,16.27
2023-05-01T18:15:29.876Z,15.48
2023-05-01T18:18:07.232Z,17.05
2023-05-01T18:24:53.030Z,16.90
2023-05-01T18:27:40.152Z,18.05
2023-05-01T18:30:34.275Z,18.23
2023-05-01T18:33:20.401Z,17.15
2023-05-01T18:35:50.439Z,17.33
2023-05-01T18:41:05.365Z,17.50
2023-05-01T18:43:35.906Z,17.95
2023-05-01T18:46:05.894Z,16.15
2023-05-01T18:48:32.739Z,16.80
2023-05-01T18:53:49.401Z,17.20
2023-05-01T18:56:21.312Z,18.67
2023-05-01T18:58:48.040Z,19.65
2023-05-01T19:01:28.459Z,17.65
2023-05-01T19:04:16.554Z,24.70
2023-05-01T19:06:45.490Z,18.38
2023-05-01T19:09:12.465Z,19.17
2023-05-01T19:11:55.675Z,16.52
2023-05-01T19:14:26.649Z,18.67
2023-05-01T19:17:22.604Z,16.52
2023-05-01T19:19:49.530Z,19.35
2023-05-01T19:22:16.833Z,20.20
2023-05-01T19:24:43.849Z,18.92
2023-05-01T19:27:12.431Z,20.95
2023-05-01T19:29:39.755Z,21.08
2023-05-01T19:32:07.202Z,24.95
2023-05-01T19:34:33.915Z,20.50
2023-05-01T19:37:02.053Z,23.23
2023-05-01T19:39:29.519Z,26.63
2023-05-01T19:41:56.363Z,24.33
2023-05-01T19:44:26.318Z,22.15
2023-05-01T19:46:56.341Z,25.38
2023-05-01T19:49:25.019Z,21.92
2023-05-01T19:51:54.510Z,20.27
2023-05-01T19:54:22.412Z,27.38
2023-05-01T19:56:51.780Z,24.83
2023-05-01T19:59:19.626Z,26.48
2023-05-01T20:01:46.540Z,22.88
2023-05-01T20:04:13.317Z,24.48
2023-05-01T20:06:40.387Z,24.33
2023-05-01T20:09:07.316Z,25.00
2023-05-01T20:11:34.255Z,27.92
2023-05-01T20:14:07.392Z,27.73
2023-05-01T20:16:36.027Z,29.67
2023-05-01T20:19:02.850Z,32.53
2023-05-01T20:21:29.792Z,31.38
2023-05-01T20:24:01.018Z,36.95
2023-05-01T20:26:27.643Z,35.97
2023-05-01T20:28:54.706Z,38.50
2023-05-01T20:31:21.450Z,37.80
2023-05-01T20:33:48.175Z,37.15
2023-05-01T20:36:15.420Z,38.13
2023-05-01T20:38:47.792Z,37.83
2023-05-01T20:41:15.036Z,39.67
2023-05-01T20:43:41.616Z,49.85
2023-05-01T20:46:08.234Z,42.78
2023-05-01T20:48:34.934Z,46.25
2023-05-01T20:51:01.649Z,49.03
2023-05-01T20:53:28.501Z,46.90
2023-05-01T20:55:55.258Z,45.38
2023-05-01T20:58:21.881Z,45.80
2023-05-01T21:00:53.195Z,49.88
2023-05-01T21:03:20.109Z,47.88
2023-05-01T21:05:46.790Z,48.95
2023-05-01T21:08:13.506Z,55.33
2023-05-01T21:10:40.175Z,50.58
2023-05-01T21:13:06.874Z,49.67
2023-05-01T21:15:46.953Z,55.30
2023-05-01T21:18:17.452Z,50.97
2023-05-01T21:20:46.228Z,52.20
2023-05-01T21:23:14.590Z,52.38
2023-05-01T21:25:42.912Z,50.17
2023-05-01T21:28:13.979Z,51.08
2023-05-01T21:30:41.109Z,52.28
2023-05-01T21:33:13.287Z,53.60
2023-05-01T21:35:45.324Z,51.88
2023-05-01T21:38:12.209Z,54.67
2023-05-01T21:40:41.914Z,52.92
2023-05-01T21:43:09.252Z,54.47
2023-05-01T21:45:40.296Z,48.90
2023-05-01T21:48:15.649Z,53.47
2023-05-01T21:50:42.399Z,50.45
2023-05-01T21:53:09.055Z,56.22
2023-05-01T21:55:35.871Z,49.45
2023-05-01T21:58:02.770Z,54.50
2023-05-01T22:00:30.043Z,51.28
2023-05-01T22:02:57.125Z,55.88
2023-05-01T22:05:23.967Z,53.45
2023-05-01T22:07:55.006Z,49.25
2023-05-01T22:10:21.659Z,52.28
2023-05-01T22:12:51.825Z,55.45
2023-05-01T22:15:18.663Z,56.92
2023-05-01T22:17:45.549Z,55.60
2023-05-01T22:20:12.403Z,52.20
2023-05-01T22:22:40.803Z,49.10
2023-05-01T22:25:08.445Z,57.70
2023-05-01T22:27:35.589Z,54.88
2023-05-01T22:30:03.390Z,50.45
2023-05-01T22:32:30.272Z,54.50
2023-05-01T22:34:56.852Z,51.15
2023-05-01T22:37:26.451Z,48.13
2023-05-01T22:39:53.566Z,47.47
2023-05-01T22:42:20.297Z,51.53
2023-05-01T22:44:47.269Z,58.45
2023-05-01T22:47:13.883Z,48.00
2023-05-01T22:49:40.466Z,51.15
2023-05-01T22:52:07.210Z,51.13
2023-05-01T22:54:33.797Z,54.97
2023-05-01T22:57:00.393Z,52.08
2023-05-01T22:59:26.968Z,50.58
2023-05-01T23:01:53.629Z,55.53
2023-05-01T23:04:20.380Z,52.40
2023-05-01T23:06:47.055Z,54.58
2023-05-01T23:09:13.696Z,57.05
2023-05-01T23:11:40.918Z,51.67
2023-05-01T23:14:07.727Z,47.83
2023-05-01T23:16:41.888Z,47.80
2023-05-01T23:19:18.833Z,52.55
2023-05-01T23:21:45.661Z,51.72
2023-05-01T23:24:21.635Z,49.58
2023-05-01T23:26:48.279Z,47.10
2023-05-01T23:29:18.462Z,46.03
2023-05-01T23:31:47.626Z,50.13
2023-05-01T23:34:17.771Z,48.17
2023-05-01T23:36:46.205Z,51.95
2023-05-01T23:39:13.540Z,46.10
2023-05-01T23:41:40.247Z,46.45
2023-05-01T23:44:07.608Z,47.08
2023-05-01T23:46:34.479Z,49.22
2023-05-01T23:49:01.126Z,49.55
2023-05-01T23:51:27.961Z,44.47
2023-05-01T23:53:54.595Z,44.53
2023-05-01T23:56:21.194Z,44.50
2023-05-01T23:58:47.796Z,46.65
